Time;durP1;ratioP1;P1;durP2;ratioP2;P2;SDS_P1;SDS_P2;PMS_P1;PMS_P2;Temp;Humidity;BMP_temperature;BMP_pressure;BME280_temperature;BME280_humidity;BME280_pressure;Samples;Min_cycle;Max_cycle;Signal;HPM_P1;HPM_P2
2022/11/13 00:02:44;;;;;;;148.80;79.35;;;;;;;18.17;70.55;99032.47;4780793;30;20205;-58
2022/11/13 00:05:51;;;;;;;157.48;82.75;;;;;;;18.15;70.16;99018.34;4768048;29;20074;-60
2022/11/13 00:08:54;;;;;;;149.45;80.90;;;;;;;18.27;70.06;99020.09;4781518;30;20551;-59
2022/11/13 00:12:01;;;;;;;152.32;87.15;;;;;;;18.19;69.43;99032.22;4770325;30;20070;-60
2022/11/13 00:15:16;;;;;;;160.68;86.60;;;;;;;18.16;69.91;99032.72;4780373;29;20134;-59
2022/11/13 00:18:24;;;;;;;157.43;89.43;;;;;;;18.03;69.88;99020.38;4780577;30;20213;-59
2022/11/13 00:21:32;;;;;;;159.65;88.90;;;;;;;18.03;69.82;99039.38;4772041;30;20070;-59
2022/11/13 00:24:38;;;;;;;171.05;90.30;;;;;;;18.06;69.83;99040.78;4781263;30;20056;-60
2022/11/13 00:27:38;;;;;;;164.90;89.55;;;;;;;18.03;70.42;99041.28;4763319;30;20067;-60
2022/11/13 00:30:45;;;;;;;163.85;90.63;;;;;;;18.05;70.15;99050.00;4762854;30;20055;-59
2022/11/13 00:33:53;;;;;;;167.63;92.32;;;;;;;18.05;70.00;99060.84;4763109;30;20142;-60
2022/11/13 00:37:13;;;;;;;158.00;88.50;;;;;;;18.01;70.14;99063.25;4777785;30;20143;-60
2022/11/13 00:40:20;;;;;;;165.23;88.75;;;;;;;17.94;70.33;99054.47;4781490;30;20155;-61
2022/11/13 00:43:21;;;;;;;171.73;91.97;;;;;;;17.94;70.01;99055.31;4780164;30;20058;-60
2022/11/13 00:46:28;;;;;;;170.95;95.15;;;;;;;17.94;69.68;99060.75;4778721;30;20483;-59
2022/11/13 00:49:28;;;;;;;185.23;99.82;;;;;;;18.00;68.77;99054.28;4778583;30;20078;-59
2022/11/13 00:52:35;;;;;;;189.48;101.70;;;;;;;18.08;69.02;99058.44;4780961;30;20067;-59
2022/11/13 00:55:44;;;;;;;186.77;100.55;;;;;;;18.14;68.80;99060.16;4779842;30;20066;-59
2022/11/13 00:58:51;;;;;;;200.05;102.65;;;;;;;18.10;68.85;99064.44;4779673;30;20070;-59
2022/11/13 01:01:59;;;;;;;197.02;101.85;;;;;;;18.14;69.13;99065.56;4767624;30;20081;-59
2022/11/13 01:04:59;;;;;;;203.52;105.22;;;;;;;18.04;69.65;99065.47;4766927;30;20495;-60
2022/11/13 01:08:07;;;;;;;200.80;103.57;;;;;;;18.12;69.54;99073.16;4763362;30;20067;-60
2022/11/13 01:11:19;;;;;;;214.05;104.30;;;;;;;18.09;69.88;99070.13;4777978;30;20063;-60
2022/11/13 01:14:19;;;;;;;218.30;107.43;;;;;;;18.12;70.22;99080.50;4781055;29;20055;-59
2022/11/13 01:17:26;;;;;;;209.00;107.13;;;;;;;17.99;70.37;99074.38;4768720;30;20597;-60
2022/11/13 01:20:27;;;;;;;215.38;108.28;;;;;;;18.03;69.82;99063.81;4780246;29;20077;-60
2022/11/13 01:23:34;;;;;;;216.77;107.53;;;;;;;18.02;70.17;99064.91;4780689;30;20201;-60
2022/11/13 01:26:34;;;;;;;221.18;107.38;;;;;;;18.07;70.18;99064.94;4780500;30;20070;-60
2022/11/13 01:29:43;;;;;;;221.32;106.78;;;;;;;18.08;69.86;99061.16;4780193;30;20387;-60
2022/11/13 01:32:43;;;;;;;225.65;108.10;;;;;;;18.16;69.69;99054.47;4780757;29;20179;-60
2022/11/13 01:35:50;;;;;;;216.68;107.70;;;;;;;18.17;69.46;99061.53;4780233;29;20070;-60
2022/11/13 01:38:52;;;;;;;215.40;105.57;;;;;;;18.08;69.76;99061.16;4780533;29;20103;-60
2022/11/13 01:42:00;;;;;;;228.90;110.03;;;;;;;18.07;70.52;99064.13;4773945;30;20070;-59
2022/11/13 01:45:45;;;;;;;216.75;105.43;;;;;;;18.09;69.35;99079.09;4785144;29;20616;-60
2022/11/13 01:48:52;;;;;;;234.18;107.07;;;;;;;17.99;69.82;99078.97;4786419;30;20535;-60
2022/11/13 01:52:08;;;;;;;216.88;108.85;;;;;;;18.08;70.19;99077.47;4786193;30;20070;-61
2022/11/13 01:55:14;;;;;;;215.57;106.70;;;;;;;18.22;69.87;99077.88;4784663;29;20055;-62
2022/11/13 01:58:21;;;;;;;209.52;105.93;;;;;;;18.37;70.39;99093.53;4783372;30;20074;-61
2022/11/13 02:01:21;;;;;;;226.57;110.60;;;;;;;18.28;69.48;99095.06;4786121;30;20074;-61
2022/11/13 02:04:29;;;;;;;220.60;107.43;;;;;;;18.42;69.23;99101.75;4785617;30;20669;-58
2022/11/13 02:07:37;;;;;;;223.70;110.72;;;;;;;18.41;68.76;99104.72;4786051;30;20700;-61
2022/11/13 02:10:37;;;;;;;228.20;111.05;;;;;;;18.53;67.91;99099.94;4786080;30;20237;-60
2022/11/13 02:13:45;;;;;;;230.75;109.35;;;;;;;18.57;68.91;99110.06;4787323;29;20091;-60
2022/11/13 02:16:59;;;;;;;226.40;109.40;;;;;;;18.78;69.03;99102.91;4768060;30;20075;-60
2022/11/13 02:20:09;;;;;;;219.48;109.68;;;;;;;18.83;69.21;99104.06;4768275;30;20074;-61
2022/11/13 02:24:01;;;;;;;228.45;112.82;;;;;;;18.79;69.36;99115.41;4767599;30;20178;-60
2022/11/13 02:27:08;;;;;;;213.95;109.78;;;;;;;18.89;69.54;99124.78;4757254;30;20070;-60
2022/11/13 02:30:26;;;;;;;218.68;113.18;;;;;;;19.02;68.59;99134.41;4767300;30;20071;-60
2022/11/13 02:33:35;;;;;;;232.23;112.78;;;;;;;19.19;69.64;99135.09;4767961;30;20051;-60
2022/11/13 02:36:43;;;;;;;216.65;114.28;;;;;;;19.45;69.32;99138.00;4781449;30;20757;-60
2022/11/13 02:39:50;;;;;;;232.18;118.75;;;;;;;19.53;68.85;99148.41;4781611;30;20059;-60
2022/11/13 02:42:50;;;;;;;235.52;116.75;;;;;;;19.60;67.22;99140.81;4785800;30;20169;-60
2022/11/13 02:45:57;;;;;;;223.95;117.40;;;;;;;19.69;66.44;99138.44;4785660;30;20059;-60
2022/11/13 02:48:58;;;;;;;229.90;116.57;;;;;;;19.80;66.35;99151.06;4785534;29;20524;-59
2022/11/13 02:52:05;;;;;;;220.43;117.57;;;;;;;19.84;69.16;99145.91;4785484;30;20170;-62
2022/11/13 02:55:06;;;;;;;233.32;118.28;;;;;;;20.15;68.06;99155.03;4784660;29;20560;-61
2022/11/13 02:58:13;;;;;;;224.82;116.40;;;;;;;20.11;69.92;99157.47;4783946;30;20801;-59
2022/11/13 03:01:21;;;;;;;223.35;117.18;;;;;;;20.14;69.27;99156.94;4784965;30;20523;-60
2022/11/13 03:04:28;;;;;;;218.63;115.60;;;;;;;20.25;69.21;99154.25;4781929;30;20087;-61
2022/11/13 03:07:55;;;;;;;218.60;115.28;;;;;;;20.26;66.89;99164.09;4781505;30;20143;-61
2022/11/13 03:10:55;;;;;;;205.35;113.10;;;;;;;20.44;69.08;99154.59;4772896;30;20079;-61
2022/11/13 03:14:09;;;;;;;198.73;109.57;;;;;;;20.62;67.96;99153.31;4783998;29;20069;-60
2022/11/13 03:17:16;;;;;;;201.43;105.90;;;;;;;20.89;66.58;99164.00;4781928;30;20086;-59
2022/11/13 03:20:23;;;;;;;193.70;102.45;;;;;;;21.02;65.04;99157.22;4781682;30;20150;-60
2022/11/13 03:23:24;;;;;;;175.43;98.53;;;;;;;21.14;63.10;99168.66;4769376;30;20818;-60
2022/11/13 03:26:31;;;;;;;187.20;96.95;;;;;;;21.30;62.91;99175.78;4764323;30;20055;-61
2022/11/13 03:29:31;;;;;;;182.35;97.82;;;;;;;21.41;62.12;99175.75;4773634;30;20066;-60
2022/11/13 03:32:38;;;;;;;186.60;99.05;;;;;;;21.67;59.64;99173.84;4782201;30;20102;-59
2022/11/13 03:35:39;;;;;;;174.32;94.85;;;;;;;21.93;58.00;99180.06;4780804;29;20059;-61
2022/11/13 03:38:47;;;;;;;180.57;93.32;;;;;;;22.21;58.49;99180.53;4781725;30;20267;-60
2022/11/13 03:41:48;;;;;;;184.35;93.68;;;;;;;22.62;58.82;99175.72;4781413;30;20143;-60
2022/11/13 03:44:55;;;;;;;174.10;89.28;;;;;;;23.21;55.14;99176.72;4778996;29;20667;-60
2022/11/13 03:48:03;;;;;;;168.85;87.28;;;;;;;23.51;55.12;99188.53;4781369;30;20404;-60
2022/11/13 03:51:03;;;;;;;160.75;77.60;;;;;;;23.67;48.73;99189.19;4774353;30;20070;-59
2022/11/13 03:54:11;;;;;;;146.35;77.18;;;;;;;24.18;52.32;99191.41;4764222;30;20066;-60
2022/11/13 03:57:12;;;;;;;135.25;68.70;;;;;;;24.61;46.36;99187.88;4781736;29;20101;-59
2022/11/13 04:00:19;;;;;;;123.90;67.18;;;;;;;24.88;43.73;99183.66;4771719;30;20426;-60
2022/11/13 04:03:26;;;;;;;117.95;60.60;;;;;;;25.40;46.45;99185.34;4782284;30;20668;-60
2022/11/13 04:06:34;;;;;;;104.40;60.75;;;;;;;25.94;46.71;99176.72;4781609;29;20084;-60
2022/11/13 04:09:42;;;;;;;99.15;57.83;;;;;;;26.24;46.87;99178.06;4782057;30;20063;-60
2022/11/13 04:12:42;;;;;;;114.18;61.38;;;;;;;26.01;49.64;99182.63;4781822;30;20069;-60
2022/11/13 04:15:56;;;;;;;103.40;59.72;;;;;;;26.01;45.63;99179.09;4783250;29;20066;-60
2022/11/13 04:19:03;;;;;;;112.57;67.22;;;;;;;26.23;41.61;99176.41;4781443;30;20452;-60
2022/11/13 04:22:11;;;;;;;112.32;63.88;;;;;;;26.49;42.68;99186.91;4777131;30;20513;-60
2022/11/13 04:25:12;;;;;;;109.63;63.92;;;;;;;26.56;45.39;99184.56;4773692;30;20062;-60
2022/11/13 04:28:19;;;;;;;109.60;61.53;;;;;;;26.61;41.78;99183.66;4778962;30;20069;-60
2022/11/13 04:31:20;;;;;;;102.88;59.13;;;;;;;26.74;41.14;99180.84;4778106;30;20055;-60
2022/11/13 04:34:27;;;;;;;107.28;58.63;;;;;;;26.38;39.35;99180.78;4778818;30;20070;-62
2022/11/13 04:37:28;;;;;;;102.97;61.03;;;;;;;26.84;44.18;99182.56;4779211;30;20150;-60
2022/11/13 04:40:35;;;;;;;105.07;59.47;;;;;;;27.05;39.37;99190.34;4767295;29;20073;-60
2022/11/13 04:43:42;;;;;;;111.22;60.17;;;;;;;26.79;40.92;99190.13;4765996;30;20096;-60
2022/11/13 04:46:42;;;;;;;96.53;58.40;;;;;;;26.99;40.33;99189.66;4780319;30;20068;-61
2022/11/13 04:49:49;;;;;;;90.55;52.85;;;;;;;27.28;40.35;99188.44;4780013;30;20689;-60
2022/11/13 04:52:50;;;;;;;97.47;53.95;;;;;;;26.86;39.30;99180.31;4779049;30;20233;-61
2022/11/13 04:55:57;;;;;;;85.63;49.47;;;;;;;27.27;41.69;99178.56;4780884;30;20123;-60
2022/11/13 04:58:58;;;;;;;84.80;47.83;;;;;;;27.00;41.51;99190.47;4781233;30;20054;-61
2022/11/13 05:02:05;;;;;;;91.55;49.95;;;;;;;27.25;40.58;99192.66;4775746;29;20069;-61
2022/11/13 05:05:05;;;;;;;88.45;52.05;;;;;;;27.08;38.46;99185.03;4777073;30;20188;-61
2022/11/13 05:08:12;;;;;;;95.65;53.00;;;;;;;27.08;38.69;99184.22;4780093;30;20063;-61
2022/11/13 05:11:20;;;;;;;100.90;55.75;;;;;;;27.36;38.58;99193.19;4773911;30;20051;-60
2022/11/13 05:14:20;;;;;;;96.88;54.75;;;;;;;27.15;37.95;99187.34;4779847;29;20070;-60
2022/11/13 05:17:27;;;;;;;96.07;52.95;;;;;;;27.53;38.57;99187.81;4778787;29;20081;-60
2022/11/13 05:20:35;;;;;;;125.05;57.72;;;;;;;27.20;38.01;99172.66;4780091;30;20074;-58
2022/11/13 05:23:36;;;;;;;102.43;55.55;;;;;;;27.62;39.16;99162.22;4764767;30;20170;-61
2022/11/13 05:26:43;;;;;;;89.07;47.45;;;;;;;27.35;36.55;99158.50;4779806;30;20058;-62
2022/11/13 05:29:43;;;;;;;93.60;46.58;;;;;;;27.34;36.10;99168.72;4778832;30;20650;-61
2022/11/13 05:32:51;;;;;;;77.25;44.15;;;;;;;27.81;37.04;99160.06;4778478;30;20499;-61
2022/11/13 05:35:46;;;;;;;83.00;44.17;;;;;;;27.70;36.13;99153.19;4775987;29;20063;-61
2022/11/13 05:38:54;;;;;;;77.82;43.45;;;;;;;27.84;34.36;99148.41;4778414;30;20065;-61
2022/11/13 05:41:54;;;;;;;80.43;45.13;;;;;;;27.74;36.83;99143.13;4770841;29;20067;-62
2022/11/13 05:45:01;;;;;;;83.13;42.83;;;;;;;27.76;37.55;99138.13;4771443;30;20063;-61
2022/11/13 05:48:01;;;;;;;65.85;37.75;;;;;;;27.79;35.63;99122.91;4773717;30;20068;-61
2022/11/13 05:51:10;;;;;;;59.47;29.77;;;;;;;27.50;33.19;99133.31;4773070;30;20610;-60
2022/11/13 05:54:11;;;;;;;56.00;27.40;;;;;;;27.47;35.34;99114.63;4767614;30;20722;-61
2022/11/13 05:57:19;;;;;;;53.97;26.13;;;;;;;27.22;38.95;99110.56;4772520;30;20050;-60
2022/11/13 06:00:20;;;;;;;44.80;23.30;;;;;;;26.97;37.40;99111.22;4779171;30;20127;-61
2022/11/13 06:03:28;;;;;;;38.35;19.60;;;;;;;27.05;36.97;99103.00;4774461;30;20070;-60
2022/11/13 06:06:35;;;;;;;38.80;21.15;;;;;;;27.34;37.71;99102.59;4776900;29;20593;-60
2022/11/13 06:09:35;;;;;;;154.32;112.82;;;;;;;27.17;35.30;99096.09;4777946;30;20760;-60
2022/11/13 06:12:42;;;;;;;48.78;32.20;;;;;;;27.92;35.24;99095.22;4777569;30;20213;-60
2022/11/13 06:15:42;;;;;;;46.58;19.67;;;;;;;27.70;32.16;99092.53;4778122;29;20055;-61
2022/11/13 06:18:53;;;;;;;37.83;17.08;;;;;;;27.56;31.75;99094.59;4772766;29;20517;-62
2022/11/13 06:22:00;;;;;;;33.63;16.10;;;;;;;27.21;28.76;99092.44;4777913;30;20069;-62
2022/11/13 06:25:08;;;;;;;28.38;15.35;;;;;;;27.34;28.49;99083.28;4778108;30;20084;-62
2022/11/13 06:28:16;;;;;;;35.17;17.10;;;;;;;27.50;29.96;99086.44;4760519;30;20632;-62
2022/11/13 06:31:24;;;;;;;41.70;20.23;;;;;;;27.72;31.50;99080.06;4768230;29;20058;-60
2022/11/13 06:34:32;;;;;;;41.38;19.58;;;;;;;27.79;29.17;99079.56;4777802;30;20077;-62
2022/11/13 06:37:39;;;;;;;39.50;22.15;;;;;;;28.00;29.28;99070.75;4769605;30;20059;-61
2022/11/13 06:40:39;;;;;;;37.78;21.92;;;;;;;28.37;31.02;99058.28;4764988;30;20120;-60
2022/11/13 06:43:49;;;;;;;39.20;21.90;;;;;;;28.02;30.15;99061.00;4780948;30;20444;-61
2022/11/13 06:46:49;;;;;;;44.50;21.70;;;;;;;28.29;34.00;99054.38;4780843;30;20063;-59
2022/11/13 06:49:56;;;;;;;46.47;20.45;;;;;;;28.53;31.48;99047.63;4776136;30;20067;-60
2022/11/13 06:53:03;;;;;;;54.40;25.00;;;;;;;28.05;29.38;99038.31;4772582;30;20215;-60
2022/11/13 06:56:11;;;;;;;50.30;24.20;;;;;;;28.33;31.72;99037.19;4780474;30;20148;-60
2022/11/13 06:59:18;;;;;;;55.42;26.58;;;;;;;28.75;32.21;99032.00;4781495;30;20051;-60
2022/11/13 07:02:25;;;;;;;58.55;27.25;;;;;;;28.02;30.27;99021.56;4778732;29;20059;-60
2022/11/13 07:05:26;;;;;;;48.55;26.58;;;;;;;27.82;30.00;99025.72;4775374;29;20131;-61
2022/11/13 07:08:35;;;;;;;54.50;26.20;;;;;;;28.35;30.94;99010.06;4775493;30;20070;-60
2022/11/13 07:11:43;;;;;;;51.83;26.40;;;;;;;28.76;31.82;99011.50;4780504;30;20070;-63
2022/11/13 07:14:58;;;;;;;48.97;25.25;;;;;;;28.68;31.29;99002.94;4781185;29;20082;-62
2022/11/13 07:18:06;;;;;;;48.55;23.83;;;;;;;28.37;31.76;98999.50;4771793;30;20402;-59
2022/11/13 07:21:17;;;;;;;56.35;26.27;;;;;;;28.21;31.78;98994.47;4778364;30;20070;-61
2022/11/13 07:24:24;;;;;;;54.08;26.55;;;;;;;27.99;31.42;98994.63;4772132;30;20062;-57
2022/11/13 07:27:32;;;;;;;53.85;26.80;;;;;;;28.19;29.99;98993.19;4765401;30;20131;-59
2022/11/13 07:30:40;;;;;;;49.15;24.95;;;;;;;28.48;31.90;98989.75;4439844;30;10000144;-60
2022/11/13 07:33:48;;;;;;;44.22;25.17;;;;;;;28.24;32.90;98988.31;4440095;30;10000943;-61
2022/11/13 07:36:55;;;;;;;55.58;26.70;;;;;;;28.18;30.77;98970.28;4776030;30;20182;-60
2022/11/13 07:40:02;;;;;;;49.65;25.35;;;;;;;28.22;32.09;98973.22;4776065;30;20228;-60
2022/11/13 07:43:10;;;;;;;48.25;25.95;;;;;;;28.68;33.23;98967.03;4773338;30;20059;-59
2022/11/13 07:46:17;;;;;;;47.10;23.85;;;;;;;28.77;32.18;98957.91;4777125;30;20765;-61
2022/11/13 07:49:24;;;;;;;47.30;26.80;;;;;;;28.89;32.61;98963.53;4774707;30;20073;-59
2022/11/13 07:52:25;;;;;;;54.45;28.15;;;;;;;28.83;32.03;98959.34;4778466;30;20066;-60
2022/11/13 07:55:34;;;;;;;56.33;28.17;;;;;;;28.52;32.96;98946.59;4779741;30;20070;-59
2022/11/13 07:58:42;;;;;;;62.05;27.80;;;;;;;27.80;29.63;98946.09;4778543;30;20073;-60
2022/11/13 08:01:50;;;;;;;62.42;26.92;;;;;;;28.01;31.18;98942.69;4780505;30;20131;-60
2022/11/13 08:04:51;;;;;;;40.00;22.33;;;;;;;28.15;30.11;98935.09;4781389;30;20106;-60
2022/11/13 08:07:59;;;;;;;49.80;24.00;;;;;;;28.48;32.74;98932.59;4778983;29;20061;-60
2022/11/13 08:10:59;;;;;;;52.25;27.15;;;;;;;28.07;31.17;98924.84;4781362;30;20632;-60
2022/11/13 08:14:13;;;;;;;60.38;26.33;;;;;;;28.39;32.29;98923.50;4782413;29;20074;-59
2022/11/13 08:17:20;;;;;;;45.47;23.80;;;;;;;28.28;31.29;98920.28;4781140;30;20392;-60
2022/11/13 08:20:28;;;;;;;43.28;24.33;;;;;;;28.45;31.46;98926.91;4781129;29;20078;-60
2022/11/13 08:23:28;;;;;;;37.35;20.17;;;;;;;28.63;30.79;98911.16;4781033;30;20093;-60
2022/11/13 08:26:35;;;;;;;31.95;18.27;;;;;;;28.50;30.60;98915.69;4781365;30;20139;-60
2022/11/13 08:29:36;;;;;;;34.72;17.05;;;;;;;28.21;30.23;98906.19;4781266;29;20074;-60
2022/11/13 08:32:44;;;;;;;29.60;15.88;;;;;;;28.19;28.77;98894.66;4780993;29;20076;-60
2022/11/13 08:35:53;;;;;;;27.92;15.00;;;;;;;28.33;28.97;98893.66;4778310;29;20529;-59
2022/11/13 08:38:54;;;;;;;31.10;16.92;;;;;;;28.04;31.23;98881.38;4779474;30;20809;-60
2022/11/13 08:42:02;;;;;;;46.78;17.75;;;;;;;28.42;30.60;98886.19;4772902;30;20119;-60
2022/11/13 08:45:02;;;;;;;40.15;17.98;;;;;;;28.46;29.47;98882.41;4780455;30;20087;-60
2022/11/13 08:48:10;;;;;;;31.95;16.50;;;;;;;28.16;28.56;98875.97;4779975;30;20055;-61
2022/11/13 08:51:17;;;;;;;33.53;15.57;;;;;;;28.48;29.42;98874.63;4780601;30;20062;-61
2022/11/13 08:54:24;;;;;;;33.13;16.75;;;;;;;28.75;30.15;98871.81;4777747;30;20063;-61
2022/11/13 08:57:31;;;;;;;45.55;17.27;;;;;;;28.35;29.34;98872.06;4777929;30;20200;-61
2022/11/13 09:00:32;;;;;;;25.90;15.85;;;;;;;28.50;28.75;98866.00;4775866;30;20089;-60
2022/11/13 09:03:40;;;;;;;27.90;14.75;;;;;;;28.73;27.96;98860.28;4778676;30;20058;-61
2022/11/13 09:06:47;;;;;;;34.80;15.93;;;;;;;28.78;28.60;98855.38;4771429;30;20084;-61
2022/11/13 09:09:54;;;;;;;28.80;16.58;;;;;;;28.61;30.87;98853.50;4770223;30;20066;-61
2022/11/13 09:13:04;;;;;;;32.78;15.05;;;;;;;28.74;29.39;98859.13;4778467;29;20090;-61
2022/11/13 09:16:17;;;;;;;35.28;16.77;;;;;;;28.51;27.46;98859.38;4773272;29;20073;-61
2022/11/13 09:19:25;;;;;;;34.92;15.88;;;;;;;28.59;29.11;98858.53;4769453;30;20555;-60
2022/11/13 09:22:33;;;;;;;30.90;14.70;;;;;;;28.61;30.04;98859.03;4777104;30;20073;-61
2022/11/13 09:25:36;;;;;;;24.58;13.27;;;;;;;28.57;27.64;98863.59;4778257;30;20055;-61
2022/11/13 09:28:43;;;;;;;34.90;14.50;;;;;;;28.73;29.64;98852.00;4778574;30;20055;-60
2022/11/13 09:31:43;;;;;;;27.58;15.35;;;;;;;28.43;28.68;98851.91;4778533;30;20396;-60
2022/11/13 09:34:50;;;;;;;30.27;16.10;;;;;;;27.65;29.47;98848.09;4777585;30;20067;-61
2022/11/13 09:37:51;;;;;;;28.55;15.60;;;;;;;28.28;29.08;98853.25;4776880;30;20062;-61
2022/11/13 09:41:04;;;;;;;42.22;15.25;;;;;;;28.15;28.81;98844.03;4771392;30;20056;-60
2022/11/13 09:44:33;;;;;;;27.08;15.18;;;;;;;28.15;30.30;98844.03;4778475;30;20107;-60
2022/11/13 09:47:47;;;;;;;28.30;13.63;;;;;;;28.18;31.51;98837.03;4769840;30;20128;-61
2022/11/13 09:50:48;;;;;;;24.92;13.30;;;;;;;27.94;30.99;98829.31;4777666;30;20078;-60
2022/11/13 09:53:56;;;;;;;32.38;14.20;;;;;;;27.96;31.21;98827.03;4778739;30;20107;-60
2022/11/13 09:57:01;;;;;;;27.60;14.75;;;;;;;27.84;31.30;98822.94;4776621;30;20066;-59
2022/11/13 10:00:26;;;;;;;28.08;13.70;;;;;;;27.71;31.62;98821.16;4762970;30;20066;-61
2022/11/13 10:03:42;;;;;;;29.88;13.57;;;;;;;27.76;31.81;98815.47;4777198;30;20119;-60
2022/11/13 10:07:29;;;;;;;23.85;13.00;;;;;;;27.72;30.10;98815.34;4771585;30;20179;-61
2022/11/13 10:10:43;;;;;;;23.55;11.73;;;;;;;27.71;32.26;98807.38;4781512;29;20208;-59
2022/11/13 10:13:58;;;;;;;;;;;;;;;27.72;32.84;98811.75;4773975;29;20120;-61
2022/11/13 10:17:37;;;;;;;26.55;12.10;;;;;;;27.59;32.24;98809.97;4763102;30;19936;-59
2022/11/13 10:20:43;;;;;;;22.40;12.32;;;;;;;27.42;35.24;98817.13;4774878;30;20205;-60
2022/11/13 10:23:56;;;;;;;22.83;12.02;;;;;;;27.37;35.04;98820.03;4782669;30;20061;-59
2022/11/13 10:26:58;;;;;;;25.23;11.48;;;;;;;27.27;35.76;98820.34;4780957;30;20065;-60
2022/11/13 10:30:14;;;;;;;26.70;13.10;;;;;;;27.20;35.78;98814.47;4781570;30;20062;-60
2022/11/13 10:33:24;;;;;;;25.77;12.45;;;;;;;27.07;37.77;98817.00;4772739;30;20388;-60
2022/11/13 10:36:42;;;;;;;23.98;12.40;;;;;;;27.01;38.12;98807.28;4782460;30;20055;-60
2022/11/13 10:39:53;;;;;;;23.73;11.60;;;;;;;26.97;39.07;98811.00;4782136;30;20637;-59
2022/11/13 10:43:16;;;;;;;27.70;12.15;;;;;;;26.87;41.61;98806.63;4781419;30;20082;-60
2022/11/13 10:46:29;;;;;;;29.55;12.55;;;;;;;26.66;41.80;98807.19;4780442;29;20116;-61
2022/11/13 10:49:37;;;;;;;29.63;11.30;;;;;;;26.61;40.87;98810.06;4783093;30;20155;-61
2022/11/13 10:52:38;;;;;;;25.23;11.50;;;;;;;26.49;41.47;98812.59;4782461;30;20061;-57
2022/11/13 10:55:49;;;;;;;22.35;11.68;;;;;;;26.40;42.22;98809.00;4782796;30;20063;-60
2022/11/13 10:59:08;;;;;;;33.67;13.10;;;;;;;26.36;41.99;98809.63;4782489;30;20709;-61
2022/11/13 11:02:19;;;;;;;30.00;13.02;;;;;;;26.25;43.91;98808.25;4767448;30;20058;-61
2022/11/13 11:05:30;;;;;;;24.98;12.43;;;;;;;26.16;44.38;98799.16;4780127;30;20062;-59
2022/11/13 11:08:38;;;;;;;27.13;13.88;;;;;;;25.98;46.12;98798.25;4782059;30;20070;-59
2022/11/13 11:15:22;;;;;;;23.27;12.18;;;;;;;25.86;44.33;98803.47;4793124;29;20063;-62
2022/11/13 11:18:46;;;;;;;26.35;12.80;;;;;;;25.84;43.51;98798.28;4787502;29;20074;-59
2022/11/13 11:21:54;;;;;;;24.13;12.23;;;;;;;25.71;44.52;98799.16;4781204;30;20055;-59
2022/11/13 11:25:19;;;;;;;22.10;12.60;;;;;;;25.69;44.53;98793.16;4779225;30;20181;-59
2022/11/13 11:28:34;;;;;;;29.48;13.23;;;;;;;25.52;46.11;98797.38;4779655;30;20421;-59
2022/11/13 11:32:09;;;;;;;25.65;13.80;;;;;;;25.50;45.79;98791.41;4780757;30;20070;-60
2022/11/13 11:35:21;;;;;;;33.40;13.55;;;;;;;25.40;45.29;98788.91;4780464;30;20142;-58
2022/11/13 11:38:47;;;;;;;23.08;13.65;;;;;;;25.29;46.17;98782.81;4781188;30;20066;-59
2022/11/13 11:42:09;;;;;;;25.58;13.70;;;;;;;25.32;45.66;98778.66;4781555;30;20074;-59
2022/11/13 11:45:30;;;;;;;31.08;15.00;;;;;;;25.18;45.96;98773.16;4768886;30;20070;-59
2022/11/13 11:48:37;;;;;;;33.92;15.25;;;;;;;25.14;45.47;98774.88;4777606;30;20228;-58
2022/11/13 11:51:47;;;;;;;29.50;16.20;;;;;;;24.99;45.27;98778.78;4781679;30;20074;-57
2022/11/13 11:55:12;;;;;;;37.35;16.10;;;;;;;25.00;46.58;98777.66;4764224;30;20120;-60
2022/11/13 11:58:31;;;;;;;29.65;16.88;;;;;;;24.91;46.23;98777.56;4780661;29;20055;-59
2022/11/13 12:02:05;;;;;;;41.10;17.08;;;;;;;24.91;46.10;98765.78;4764078;30;20074;-59
2022/11/13 12:05:33;;;;;;;40.33;17.23;;;;;;;24.81;46.70;98762.13;4762754;30;20872;-60
2022/11/13 12:09:10;;;;;;;40.70;17.13;;;;;;;24.69;47.18;98770.09;4763991;30;20070;-60
2022/11/13 12:12:16;;;;;;;39.97;18.42;;;;;;;24.60;46.64;98766.44;4765374;30;20708;-60
2022/11/13 12:16:01;;;;;;;46.25;20.85;;;;;;;24.61;46.55;98774.34;4782490;29;20381;-60
2022/11/13 12:19:04;;;;;;;47.10;21.92;;;;;;;24.43;46.73;98780.72;4779957;30;20063;-59
2022/11/13 12:22:38;;;;;;;52.80;24.58;;;;;;;24.39;45.64;98783.25;4778822;30;20055;-59
2022/11/13 12:26:11;;;;;;;45.78;24.17;;;;;;;24.32;45.87;98791.06;4781365;30;20094;-60
2022/11/13 12:29:37;;;;;;;56.00;26.33;;;;;;;24.23;46.46;98790.97;4778045;30;20062;-61
2022/11/13 12:32:47;;;;;;;67.53;29.55;;;;;;;24.20;45.29;98798.97;4779642;30;20177;-60
2022/11/13 12:35:52;;;;;;;61.90;29.43;;;;;;;24.14;44.83;98808.41;4780294;30;20070;-59
2022/11/13 12:39:35;;;;;;;64.50;30.27;;;;;;;23.97;45.92;98818.00;4777505;30;20115;-60
2022/11/13 12:42:50;;;;;;;61.65;30.83;;;;;;;23.94;49.20;98817.78;4780663;30;20069;-59
2022/11/13 12:46:01;;;;;;;71.28;32.63;;;;;;;23.80;45.98;98820.50;4781202;30;20085;-59
2022/11/13 12:49:26;;;;;;;71.80;33.22;;;;;;;23.81;47.66;98816.66;4779934;29;20058;-60
2022/11/13 12:52:33;;;;;;;68.18;34.38;;;;;;;23.77;45.06;98816.41;4779403;29;20073;-59
2022/11/13 12:55:37;;;;;;;75.00;37.40;;;;;;;23.67;45.00;98818.47;4770463;29;20067;-61
2022/11/13 12:58:44;;;;;;;78.10;37.80;;;;;;;23.55;45.61;98827.16;4771996;30;20505;-60
2022/11/13 13:02:08;;;;;;;73.28;37.75;;;;;;;23.56;46.32;98829.59;4778829;30;20357;-61
2022/11/13 13:05:44;;;;;;;82.78;38.65;;;;;;;23.48;46.86;98840.41;4777766;30;20070;-60
2022/11/13 13:08:49;;;;;;;71.45;38.13;;;;;;;23.37;48.15;98846.03;4771971;30;20070;-59
2022/11/13 13:12:24;;;;;;;78.40;39.05;;;;;;;23.29;47.62;98851.34;4778869;30;20055;-57
2022/11/13 13:15:49;;;;;;;92.15;40.72;;;;;;;23.31;48.31;98851.84;4775098;29;20711;-60
2022/11/13 13:18:44;;;;;;;91.00;40.00;;;;;;;23.25;48.72;98854.69;4777600;30;20055;-62
2022/11/13 13:21:52;;;;;;;76.97;39.97;;;;;;;23.06;50.22;98856.56;4764742;30;20075;-62
2022/11/13 13:25:03;;;;;;;76.32;40.60;;;;;;;22.97;49.85;98863.78;4780699;29;20050;-61
2022/11/13 13:28:20;;;;;;;84.80;41.50;;;;;;;22.95;50.65;98860.47;4784215;29;20084;-60
2022/11/13 13:31:42;;;;;;;87.65;41.92;;;;;;;22.96;49.27;98856.66;4789424;29;20127;-60
2022/11/13 13:34:58;;;;;;;78.45;40.70;;;;;;;22.92;50.05;98861.88;4793102;29;20055;-61
2022/11/13 13:38:20;;;;;;;78.68;41.17;;;;;;;22.88;50.25;98872.59;4792343;29;20070;-61
2022/11/13 13:41:29;;;;;;;77.78;43.35;;;;;;;22.83;50.31;98875.41;4790951;29;20489;-61
2022/11/13 13:44:38;;;;;;;90.90;46.50;;;;;;;22.80;50.54;98867.78;4788265;29;20757;-60
2022/11/13 13:47:48;;;;;;;88.18;46.10;;;;;;;22.77;51.08;98876.56;4789120;29;20056;-62
2022/11/13 13:50:53;;;;;;;90.90;48.40;;;;;;;22.68;51.13;98883.78;4776921;29;20240;-62
2022/11/13 13:54:06;;;;;;;83.85;48.50;;;;;;;22.66;50.76;98877.75;4779168;29;20386;-61
2022/11/13 13:57:07;;;;;;;93.20;46.88;;;;;;;22.58;51.64;98879.22;4767707;29;20062;-61
2022/11/13 14:00:18;;;;;;;100.28;47.83;;;;;;;22.60;51.92;98881.66;4774860;29;20059;-61
2022/11/13 14:03:28;;;;;;;92.15;46.50;;;;;;;22.42;51.55;98881.28;4782521;29;20112;-61
2022/11/13 14:06:28;;;;;;;95.97;49.50;;;;;;;22.44;51.83;98881.81;4779156;29;20067;-59
2022/11/13 14:09:37;;;;;;;115.57;51.35;;;;;;;22.46;49.69;98887.00;4459070;29;10001327;-61
2022/11/13 14:12:46;;;;;;;99.45;51.00;;;;;;;22.37;51.26;98899.66;4774250;29;20248;-61
2022/11/13 14:15:47;;;;;;;95.55;49.80;;;;;;;22.30;51.99;98905.47;4772378;29;20052;-59
2022/11/13 14:19:04;;;;;;;91.25;49.08;;;;;;;22.40;52.80;98910.84;4767839;30;20759;-63
2022/11/13 14:22:16;;;;;;;93.03;49.92;;;;;;;22.25;53.31;98905.50;4768340;29;20066;-62
2022/11/13 14:25:27;;;;;;;120.60;55.80;;;;;;;22.26;51.98;98901.66;4759494;30;20151;-61
2022/11/13 14:28:29;;;;;;;;;;;;;;;22.33;52.41;98913.09;4759742;30;20075;-62
2022/11/13 14:31:36;;;;;;;95.63;51.70;;;;;;;22.08;53.27;98903.97;4759935;30;19986;-63